AirNav   Everest Fuels
 
 584 users online  

LS19 Houma Terrebonne Heliport
Chauvin, Louisiana, USA

GOING TO CHAUVIN?


FAA INFORMATION EFFECTIVE 07 NOVEMBER 2019

Location

FAA Identifier: LS19
Lat/Long: 29-15-01.8140N 090-39-44.3160W
29-15.030233N 090-39.738600W
29.2505039,-90.6623100
(estimated)
Elevation: 3 ft. / 1 m (estimated)
Variation: 03E (1980)
From city: 14 miles NE of CHAUVIN, LA
Time zone: UTC -6 (UTC -5 during Daylight Saving Time)
Zip code: 70344

Heliport Operations

Heliport use: Private use. Permission required prior to landing
Activation date: 11/1986
Control tower: no
ARTCC: HOUSTON CENTER
FSS: DE RIDDER FLIGHT SERVICE STATION
Attendance: UNATNDD
Segmented circle: no

Heliport Communications

WX AWOS-3PT at HUM (19 nm N): 120.25 (985-876-4055)

Nearby radio navigation aids

VOR radial/distance  VOR name  Freq  Var
TBDr159/26.3TIBBY VOR/DME112.0002E
LEVr277/29.6LEEVILLE VORTAC113.5002E

Heliport Services

Runway Information

Helipad H1

Dimensions: 80 x 80 ft. / 24 x 24 m
Surface: turf
Traffic pattern: leftleft

Heliport Ownership and Management from official FAA records

Ownership: Privately-owned
Owner: JOHN L. GLOVER
106 PIER 56
CHAUVIN, LA 70344
Phone 985-594-6626
Manager: MICHAEL GLOVER
106 PIER 56
CHAUVIN, LA 70344
Phone 985-594-6626

Additional Remarks

A52-H1 25' BUILDING 300' EAST.
FOR CD CTC HOUSTON ARTCC AT 281-230-5622.

Instrument Procedures

There are no published instrument procedures at LS19.

Some nearby airports with instrument procedures:

KHUM - Houma-Terrebonne Airport (19 nm N)
KGAO - South Lafourche Leonard Miller Jr.. Airport (24 nm NE)
L83 - Thibodaux Municipal Airport (31 nm N)
KPTN - Harry P Williams Memorial Airport (45 nm NW)
KNBG - New Orleans Naval Air Station Joint Reserve Base//Alvin Callender Field (48 nm NE)
 
Loc | Ops | Rwys | IFR | FBO | Links
Com | Nav | Svcs | Stats | Notes
Area around LS19 (Houma Terrebonne Heliport)
 
Road maps at: MapQuest Bing Google
 
Aerial photo
No photo
 
Sectional chart

 
Airport distance calculator
Flying to Houma Terrebonne Heliport? Find the distance to fly.

From to LS19

Sunrise and sunset
Times for 18-Nov-2019
 Local
(UTC-6)
 Zulu
(UTC)
Morning civil twilight06:0512:05
Sunrise06:3012:30
Sunset17:0623:06
Evening civil twilight17:3123:31

Current date and time
Zulu (UTC)  19-Nov-2019 05:54:49
Local (UTC-6)  18-Nov-2019 23:54:49
 
METAR
KHUM 
19nm N 
190535Z AUTO 23003KT 1/2SM HZ VV005 10/M03 A2994 RMK AO2 T01001029
KGAO 
24nm NE 
190535Z AUTO 00000KT 4SM BR CLR 11/09 A2995 RMK AO2 T01050092
KXPY 
25nm E 
190535Z AUTO 27007KT 10SM CLR 15/14 A2995 RMK A01
TAF
KHUM 
19nm N 
181740Z 1818/1918 29006KT P6SM SKC FM191100 00000KT 5SM BR SKC FM191400 00000KT P6SM SKC
NOTAMs
Click for the latest NOTAMs
NOTAMs are issued by the DoD/FAA and will open in a separate window not controlled by AirNav.

 

 
 

Would you like to see your business listed on this page?

 If your business provides an interesting product or service to pilots, flight crews, aircraft, or users of the Houma Terrebonne Heliport, you should consider listing it here.  To start the listing process, click on the button below
 
Add a business
 

Other Pages about Houma Terrebonne Heliport

Update a link
 
Copyright © AirNav, LLC. All rights reserved. Privacy Policy  Contact